Time;durP1;ratioP1;P1;durP2;ratioP2;P2;SDS_P1;SDS_P2;PMS_P1;PMS_P2;Temp;Humidity;BMP_temperature;BMP_pressure;BME280_temperature;BME280_humidity;BME280_pressure;Samples;Min_cycle;Max_cycle;Signal;HPM_P1;HPM_P2
2023/08/26 00:00:05;;;;;;;3.30;2.70;;;15.10;99.90;;;;;;5094978;28;20190;-73
2023/08/26 00:02:33;;;;;;;8.37;2.80;;;15.10;99.90;;;;;;5094591;28;20221;-74
2023/08/26 00:04:59;;;;;;;2.80;2.40;;;15.00;99.90;;;;;;5094914;28;20539;-72
2023/08/26 00:07:24;;;;;;;4.13;2.00;;;15.00;99.90;;;;;;5094787;28;20501;-74
2023/08/26 00:09:50;;;;;;;4.10;2.20;;;15.00;99.90;;;;;;5094558;28;20300;-74
2023/08/26 00:12:15;;;;;;;4.07;1.90;;;15.00;99.90;;;;;;5094467;28;20206;-74
2023/08/26 00:14:41;;;;;;;5.53;2.50;;;15.00;99.90;;;;;;5094672;28;20178;-74
2023/08/26 00:17:07;;;;;;;3.00;2.10;;;15.00;99.90;;;;;;5094474;28;20224;-75
2023/08/26 00:19:32;;;;;;;4.43;2.83;;;15.00;99.90;;;;;;5094444;28;20271;-75
2023/08/26 00:22:00;;;;;;;2.30;2.10;;;15.00;99.90;;;;;;5094513;28;20255;-74
2023/08/26 00:24:26;;;;;;;3.03;1.90;;;15.00;99.90;;;;;;5094315;28;20183;-75
2023/08/26 00:26:51;;;;;;;3.40;2.10;;;14.90;99.90;;;;;;5094523;28;20172;-74
2023/08/26 00:29:17;;;;;;;3.60;2.60;;;14.90;99.90;;;;;;5094499;28;20264;-74
2023/08/26 00:31:42;;;;;;;7.90;2.50;;;14.80;99.90;;;;;;5094118;28;20168;-73
2023/08/26 00:34:08;;;;;;;2.30;2.10;;;14.70;99.90;;;;;;5094340;28;20171;-74
2023/08/26 00:36:34;;;;;;;5.03;1.97;;;14.60;99.90;;;;;;5094340;28;20175;-75
2023/08/26 00:39:00;;;;;;;3.03;2.47;;;14.70;99.90;;;;;;5094171;28;20631;-73
2023/08/26 00:41:26;;;;;;;4.10;2.23;;;14.70;99.90;;;;;;5092859;28;20540;-72
2023/08/26 00:43:51;;;;;;;3.53;2.30;;;14.70;99.90;;;;;;5094279;28;20258;-74
2023/08/26 00:46:17;;;;;;;4.57;2.53;;;14.70;99.90;;;;;;5093840;28;20271;-75
2023/08/26 00:48:43;;;;;;;3.10;2.70;;;14.60;99.90;;;;;;5094157;28;20172;-72
2023/08/26 00:51:10;;;;;;;4.63;2.30;;;14.60;99.90;;;;;;5094167;28;20630;-73
2023/08/26 00:53:35;;;;;;;4.43;2.30;;;14.60;99.90;;;;;;5093976;28;20176;-73
2023/08/26 00:56:01;;;;;;;4.83;2.60;;;14.60;99.90;;;;;;5093945;28;20825;-74
2023/08/26 00:58:28;;;;;;;6.03;2.30;;;14.60;99.90;;;;;;5094066;28;20232;-74
2023/08/26 01:00:54;;;;;;;3.43;2.30;;;14.60;99.90;;;;;;5093709;28;20168;-74
2023/08/26 01:03:20;;;;;;;6.50;2.57;;;14.60;99.90;;;;;;5093804;28;20657;-73
2023/08/26 01:05:46;;;;;;;4.33;2.40;;;14.60;99.90;;;;;;5093746;28;20176;-73
2023/08/26 01:08:13;;;;;;;5.30;2.10;;;14.60;99.90;;;;;;5093788;28;20176;-73
2023/08/26 01:11:02;;;;;;;5.00;2.63;;;14.60;99.90;;;;;;5093770;28;20296;-72
2023/08/26 01:13:48;;;;;;;4.03;2.57;;;14.50;99.90;;;;;;5093812;28;20266;-76
2023/08/26 01:16:15;;;;;;;6.03;2.70;;;14.60;99.90;;;;;;5093394;28;20211;-72
2023/08/26 01:18:42;;;;;;;5.83;2.70;;;14.50;99.90;;;;;;5093469;28;20268;-72
2023/08/26 01:21:12;;;;;;;3.77;2.67;;;14.50;99.90;;;;;;5093679;28;20180;-72
2023/08/26 01:23:43;;;;;;;5.10;2.30;;;14.50;99.90;;;;;;5093147;28;20641;-73
2023/08/26 01:26:09;;;;;;;6.20;2.60;;;14.50;99.90;;;;;;5093479;28;20156;-74
2023/08/26 01:28:34;;;;;;;6.17;2.70;;;14.50;99.90;;;;;;5092368;28;20528;-74
2023/08/26 01:31:09;;;;;;;3.03;2.67;;;14.50;99.90;;;;;;5093140;28;20238;-73
2023/08/26 01:33:45;;;;;;;6.93;2.23;;;14.50;99.90;;;;;;5093445;28;20171;-74
2023/08/26 01:36:17;;;;;;;7.27;2.73;;;14.40;99.90;;;;;;5093513;28;20176;-73
2023/08/26 01:38:45;;;;;;;4.20;2.70;;;14.40;99.90;;;;;;5093470;28;20157;-74
2023/08/26 01:41:14;;;;;;;6.07;2.33;;;14.40;99.90;;;;;;5093329;28;20203;-73
2023/08/26 01:43:40;;;;;;;7.40;2.73;;;14.40;99.90;;;;;;5092978;28;20218;-73
2023/08/26 01:46:06;;;;;;;6.80;2.30;;;14.40;99.90;;;;;;5093305;28;20643;-72
2023/08/26 01:48:31;;;;;;;5.03;2.57;;;14.40;99.90;;;;;;5093247;28;20164;-72
2023/08/26 01:50:57;;;;;;;3.70;2.30;;;14.50;99.90;;;;;;5093353;28;20214;-73
2023/08/26 01:53:22;;;;;;;4.07;2.37;;;14.50;99.90;;;;;;5093165;28;20489;-72
2023/08/26 01:55:48;;;;;;;3.93;2.30;;;14.50;99.90;;;;;;5093284;28;20197;-74
2023/08/26 01:58:13;;;;;;;3.40;2.50;;;14.50;99.90;;;;;;5092884;28;20580;-72
2023/08/26 02:00:39;;;;;;;5.23;2.40;;;14.60;99.90;;;;;;5093155;28;20168;-73
2023/08/26 02:03:04;;;;;;;4.40;2.47;;;14.60;99.90;;;;;;5093152;28;20564;-73
2023/08/26 02:05:30;;;;;;;3.50;2.37;;;14.60;99.90;;;;;;5093242;28;20259;-74
2023/08/26 02:07:56;;;;;;;4.53;2.20;;;14.60;99.90;;;;;;5093342;28;20175;-74
2023/08/26 02:10:21;;;;;;;5.03;2.30;;;14.60;99.90;;;;;;5093125;28;20219;-73
2023/08/26 02:12:47;;;;;;;4.50;2.37;;;14.70;99.90;;;;;;5091336;28;20186;-73
2023/08/26 02:15:12;;;;;;;4.30;2.20;;;14.70;99.90;;;;;;5093076;28;20171;-73
2023/08/26 02:17:39;;;;;;;4.47;2.40;;;14.70;99.90;;;;;;5091452;28;20176;-73
2023/08/26 02:20:07;;;;;;;6.37;2.50;;;14.60;99.90;;;;;;5093076;28;20195;-73
2023/08/26 02:22:33;;;;;;;6.63;2.70;;;14.50;99.90;;;;;;5093025;28;20176;-73
2023/08/26 02:24:58;;;;;;;4.93;2.30;;;14.50;99.90;;;;;;5091629;28;20649;-74
2023/08/26 02:27:24;;;;;;;5.07;2.40;;;14.50;99.90;;;;;;5092646;28;20172;-74
2023/08/26 02:29:50;;;;;;;2.70;2.40;;;14.50;99.90;;;;;;5092959;28;20222;-73
2023/08/26 02:32:15;;;;;;;5.07;2.40;;;14.50;99.90;;;;;;5092912;28;20532;-73
2023/08/26 02:34:41;;;;;;;6.23;2.47;;;14.50;99.90;;;;;;5092886;28;20200;-73
2023/08/26 02:37:06;;;;;;;3.70;2.30;;;14.50;99.90;;;;;;5096530;28;20535;-74
2023/08/26 02:39:32;;;;;;;2.77;2.40;;;14.50;99.90;;;;;;5096653;28;20180;-74
2023/08/26 02:41:57;;;;;;;5.60;2.83;;;14.40;99.90;;;;;;5095959;28;20195;-73
2023/08/26 02:44:23;;;;;;;7.53;2.57;;;14.40;99.90;;;;;;5096576;28;20539;-72
2023/08/26 02:46:49;;;;;;;3.03;2.67;;;14.40;99.90;;;;;;5096606;28;20179;-74
2023/08/26 02:49:14;;;;;;;3.60;2.40;;;14.40;99.90;;;;;;5096398;28;20300;-73
2023/08/26 02:51:40;;;;;;;4.00;2.30;;;14.50;99.90;;;;;;5096308;28;20172;-73
2023/08/26 02:54:05;;;;;;;3.30;1.97;;;14.40;99.90;;;;;;5095057;28;20176;-74
2023/08/26 02:56:31;;;;;;;5.07;2.00;;;14.40;99.90;;;;;;5095579;28;20164;-73
2023/08/26 02:58:57;;;;;;;4.97;2.20;;;14.40;99.90;;;;;;5096303;28;20527;-73
2023/08/26 03:01:24;;;;;;;7.07;2.60;;;14.40;99.90;;;;;;5096490;28;20182;-74
2023/08/26 03:03:49;;;;;;;3.67;2.37;;;14.40;99.90;;;;;;5096108;28;20160;-74
2023/08/26 03:06:15;;;;;;;3.87;2.27;;;14.40;99.90;;;;;;5096067;28;20171;-74
2023/08/26 03:08:41;;;;;;;3.43;2.27;;;14.40;99.90;;;;;;5095956;28;20164;-73
2023/08/26 03:11:09;;;;;;;3.03;2.20;;;14.40;99.90;;;;;;5095506;28;20280;-73
2023/08/26 03:13:35;;;;;;;3.47;2.00;;;14.40;99.90;;;;;;5095856;28;20199;-73
2023/08/26 03:16:09;;;;;;;3.43;2.00;;;14.40;99.90;;;;;;5095731;28;20589;-73
2023/08/26 03:18:35;;;;;;;4.23;2.43;;;14.40;99.90;;;;;;5094109;28;20227;-74
2023/08/26 03:21:05;;;;;;;3.27;2.10;;;14.40;99.90;;;;;;5095509;28;20160;-72
2023/08/26 03:23:31;;;;;;;4.80;2.17;;;14.40;99.90;;;;;;5095720;28;20172;-73
2023/08/26 03:25:57;;;;;;;4.93;1.83;;;14.40;99.90;;;;;;5095486;28;20183;-73
2023/08/26 03:28:23;;;;;;;5.67;2.13;;;14.40;99.90;;;;;;5095486;28;20635;-73
2023/08/26 03:30:48;;;;;;;4.57;2.00;;;14.40;99.90;;;;;;5095295;28;20246;-74
2023/08/26 03:33:14;;;;;;;4.47;1.93;;;14.40;99.90;;;;;;5095473;28;20171;-74
2023/08/26 03:35:40;;;;;;;2.97;2.03;;;14.40;99.90;;;;;;5095129;28;20160;-73
2023/08/26 03:38:06;;;;;;;4.70;2.03;;;14.40;99.90;;;;;;5095044;28;20268;-73
2023/08/26 03:40:31;;;;;;;5.33;1.80;;;14.40;99.90;;;;;;5094976;28;20164;-73
2023/08/26 03:42:57;;;;;;;2.97;2.00;;;14.40;99.90;;;;;;5095050;28;20188;-72
2023/08/26 03:45:23;;;;;;;3.83;2.10;;;14.50;99.90;;;;;;5095109;28;20505;-73
2023/08/26 03:47:49;;;;;;;5.40;1.93;;;14.40;99.90;;;;;;5094326;28;20640;-74
2023/08/26 03:50:15;;;;;;;2.73;2.10;;;14.30;99.90;;;;;;5094828;28;20295;-73
2023/08/26 03:52:40;;;;;;;2.83;1.60;;;14.30;99.90;;;;;;5093514;28;20172;-72
2023/08/26 03:55:06;;;;;;;6.30;1.83;;;14.40;99.90;;;;;;5094599;28;20208;-73
2023/08/26 03:57:31;;;;;;;4.47;2.07;;;14.50;99.90;;;;;;5095071;28;20168;-73
2023/08/26 03:59:58;;;;;;;1.77;1.67;;;14.50;99.90;;;;;;5095006;28;20175;-73
2023/08/26 04:02:23;;;;;;;2.37;1.80;;;14.50;99.90;;;;;;5094760;28;20164;-73
2023/08/26 04:04:49;;;;;;;3.60;1.90;;;14.40;99.90;;;;;;5094564;28;20164;-73
2023/08/26 04:07:15;;;;;;;6.50;1.70;;;14.40;99.90;;;;;;5094340;28;20172;-73
2023/08/26 04:09:41;;;;;;;4.23;1.67;;;14.40;99.90;;;;;;5094394;28;20208;-73
2023/08/26 04:12:07;;;;;;;1.73;1.60;;;14.30;99.90;;;;;;5094478;28;20175;-73
2023/08/26 04:14:32;;;;;;;2.20;1.87;;;14.30;99.90;;;;;;5094630;28;20191;-73
2023/08/26 04:16:58;;;;;;;3.20;1.90;;;14.40;99.90;;;;;;5094511;28;20172;-73
2023/08/26 04:19:24;;;;;;;3.63;1.80;;;14.40;99.90;;;;;;5094250;28;20232;-73
2023/08/26 04:21:49;;;;;;;2.93;2.00;;;14.30;99.90;;;;;;5094067;28;20551;-73
2023/08/26 04:24:15;;;;;;;3.00;1.77;;;14.40;99.90;;;;;;5094075;28;20176;-74
2023/08/26 04:26:40;;;;;;;3.57;1.83;;;14.50;99.90;;;;;;5093048;28;20180;-73
2023/08/26 04:29:06;;;;;;;4.33;1.93;;;14.40;99.90;;;;;;5094181;28;20300;-73
2023/08/26 04:31:32;;;;;;;3.20;1.77;;;14.50;99.90;;;;;;5094336;28;20691;-73
2023/08/26 04:33:58;;;;;;;2.70;1.90;;;14.40;99.90;;;;;;5094479;28;20264;-73
2023/08/26 04:36:23;;;;;;;4.77;1.93;;;14.50;99.90;;;;;;5092399;28;20619;-73
2023/08/26 04:38:49;;;;;;;4.13;1.80;;;14.40;99.90;;;;;;5094017;28;20207;-73
2023/08/26 04:41:15;;;;;;;2.77;1.73;;;14.40;99.90;;;;;;5093818;28;20547;-73
2023/08/26 04:43:40;;;;;;;4.53;2.20;;;14.40;99.90;;;;;;5094076;28;20179;-73
2023/08/26 04:46:06;;;;;;;6.53;2.10;;;14.30;99.90;;;;;;5093704;28;20647;-73
2023/08/26 04:48:33;;;;;;;5.33;2.13;;;14.30;99.90;;;;;;5093856;28;20212;-72
2023/08/26 04:50:59;;;;;;;5.93;2.00;;;14.30;99.90;;;;;;5093790;28;20211;-73
2023/08/26 04:53:24;;;;;;;3.73;1.73;;;14.40;99.90;;;;;;5093160;28;20175;-73
2023/08/26 04:55:51;;;;;;;4.40;2.17;;;14.40;99.90;;;;;;5093628;28;20180;-72
2023/08/26 04:58:17;;;;;;;4.23;2.00;;;14.50;99.90;;;;;;5091957;28;20281;-72
2023/08/26 05:00:43;;;;;;;8.73;2.07;;;14.50;99.90;;;;;;5093208;28;20232;-72
2023/08/26 05:03:09;;;;;;;5.23;2.00;;;14.50;99.90;;;;;;5093425;28;20168;-71
2023/08/26 05:05:35;;;;;;;3.97;1.93;;;14.60;99.90;;;;;;5093443;28;20266;-72
2023/08/26 05:08:00;;;;;;;2.47;1.80;;;14.60;99.90;;;;;;5093171;28;20196;-73
2023/08/26 05:10:26;;;;;;;3.40;2.07;;;14.70;99.90;;;;;;5092998;28;20254;-71
2023/08/26 05:12:52;;;;;;;4.67;2.00;;;15.10;99.90;;;;;;5093294;28;20565;-73
2023/08/26 05:15:17;;;;;;;4.10;1.97;;;15.40;99.90;;;;;;5093450;28;20594;-72
2023/08/26 05:17:43;;;;;;;3.17;1.80;;;15.70;99.90;;;;;;5091199;28;20172;-72
2023/08/26 05:20:09;;;;;;;2.37;1.90;;;16.20;99.90;;;;;;5093460;28;20262;-73
2023/08/26 05:22:34;;;;;;;6.17;1.73;;;16.90;99.90;;;;;;5092800;28;20532;-73
2023/08/26 05:25:00;;;;;;;3.83;1.90;;;17.20;99.90;;;;;;5093229;28;20172;-73
2023/08/26 05:27:27;;;;;;;3.15;1.55;;;17.60;99.90;;;;;;5093568;28;20168;-74
2023/08/26 05:29:53;;;;;;;6.07;1.70;;;18.30;99.90;;;;;;5093073;28;20206;-74
2023/08/26 05:32:18;;;;;;;4.07;1.70;;;18.40;99.90;;;;;;5093361;28;20167;-73
2023/08/26 05:34:45;;;;;;;4.55;1.88;;;18.60;99.90;;;;;;5092025;28;20627;-74
2023/08/26 05:37:10;;;;;;;3.05;1.65;;;18.40;99.90;;;;;;5093039;28;20314;-74
2023/08/26 05:39:36;;;;;;;2.63;1.67;;;18.70;99.90;;;;;;5092748;28;20254;-73
2023/08/26 05:42:02;;;;;;;4.05;1.48;;;19.40;99.90;;;;;;5092872;28;20191;-73
2023/08/26 05:44:27;;;;;;;6.55;2.10;;;20.10;99.90;;;;;;5093196;28;20680;-73
2023/08/26 05:46:54;;;;;;;2.63;1.60;;;20.70;99.90;;;;;;5093137;28;20164;-72
2023/08/26 05:49:20;;;;;;;3.72;2.00;;;21.10;99.90;;;;;;5092740;28;20187;-73
2023/08/26 05:51:45;;;;;;;3.25;1.70;;;21.90;99.90;;;;;;5092653;28;20639;-73
2023/08/26 05:54:11;;;;;;;5.18;1.77;;;23.00;99.90;;;;;;5092722;28;20176;-74
2023/08/26 05:56:36;;;;;;;3.22;1.73;;;22.60;99.90;;;;;;5092785;28;20218;-74
2023/08/26 05:59:02;;;;;;;2.72;1.88;;;22.00;99.90;;;;;;5092764;28;20571;-74
2023/08/26 06:01:27;;;;;;;3.17;1.80;;;21.20;99.90;;;;;;5091670;28;20225;-73
2023/08/26 06:03:54;;;;;;;3.10;1.80;;;20.80;99.90;;;;;;5092548;28;20204;-74
2023/08/26 06:06:20;;;;;;;3.38;1.85;;;20.70;99.90;;;;;;5092309;28;20172;-74
2023/08/26 06:08:45;;;;;;;4.20;1.98;;;21.50;99.90;;;;;;5092785;28;20246;-74
2023/08/26 06:11:11;;;;;;;3.58;1.77;;;21.50;99.90;;;;;;5095293;28;20645;-73
2023/08/26 06:13:37;;;;;;;5.72;2.17;;;21.50;99.90;;;;;;5095501;28;20168;-75
2023/08/26 06:16:02;;;;;;;4.45;2.00;;;22.40;99.90;;;;;;5096685;28;20228;-75
2023/08/26 06:18:28;;;;;;;2.70;2.03;;;22.80;99.90;;;;;;5096696;28;20215;-75
2023/08/26 06:20:53;;;;;;;3.38;1.83;;;23.60;98.80;;;;;;5096352;28;20255;-75
2023/08/26 06:23:19;;;;;;;2.75;1.70;;;24.10;97.20;;;;;;5096349;28;20168;-75
2023/08/26 06:25:56;;;;;;;2.88;1.83;;;23.70;98.30;;;;;;5095393;28;20179;-74
2023/08/26 06:28:22;;;;;;;2.85;1.90;;;24.50;96.70;;;;;;5096120;28;20501;-72
2023/08/26 06:30:48;;;;;;;1.95;1.50;;;25.00;94.70;;;;;;5096452;28;20216;-72
2023/08/26 06:33:14;;;;;;;2.95;1.98;;;25.50;92.50;;;;;;5096326;28;20172;-74
2023/08/26 06:35:39;;;;;;;3.75;1.83;;;25.60;93.00;;;;;;5095981;28;20180;-74
2023/08/26 06:38:07;;;;;;;2.38;1.90;;;26.10;91.40;;;;;;5096219;28;20196;-72
2023/08/26 06:40:34;;;;;;;3.80;2.08;;;26.20;90.20;;;;;;5095944;28;20619;-72
2023/08/26 06:43:02;;;;;;;2.67;1.77;;;26.20;90.70;;;;;;5096013;28;20233;-73
2023/08/26 06:45:28;;;;;;;3.97;2.00;;;25.90;90.60;;;;;;5095743;28;20251;-72
2023/08/26 06:47:54;;;;;;;4.10;1.60;;;26.30;90.50;;;;;;5095583;28;20254;-74
2023/08/26 06:50:20;;;;;;;1.90;1.80;;;26.10;89.70;;;;;;5096024;28;20671;-74
2023/08/26 06:52:46;;;;;;;2.70;1.80;;;26.70;88.50;;;;;;5095858;28;20172;-72
2023/08/26 06:55:11;;;;;;;2.28;1.70;;;27.30;84.90;;;;;;5095756;28;20543;-72
2023/08/26 06:57:37;;;;;;;3.22;2.10;;;27.90;79.60;;;;;;5095835;28;20186;-73
2023/08/26 07:00:08;;;;;;;5.53;1.88;;;29.00;74.50;;;;;;5095867;28;20255;-73
2023/08/26 07:02:34;;;;;;;2.33;1.80;;;29.50;67.60;;;;;;5095437;28;20176;-73
2023/08/26 07:05:00;;;;;;;3.63;1.90;;;29.00;65.90;;;;;;5095729;28;20168;-72
2023/08/26 07:07:25;;;;;;;3.00;1.63;;;29.10;68.80;;;;;;5095723;28;20172;-72
2023/08/26 07:09:51;;;;;;;1.75;1.58;;;29.90;64.10;;;;;;5095416;28;20234;-73
2023/08/26 07:12:16;;;;;;;2.47;1.65;;;30.40;61.10;;;;;;5095370;28;20568;-73
2023/08/26 07:14:42;;;;;;;4.20;1.45;;;30.00;61.00;;;;;;5095517;28;20176;-73
2023/08/26 07:17:08;;;;;;;2.85;2.00;;;30.00;59.60;;;;;;5095050;28;20178;-72
2023/08/26 07:19:33;;;;;;;2.55;1.73;;;29.70;60.50;;;;;;5095232;28;20223;-72
2023/08/26 07:22:00;;;;;;;1.77;1.50;;;29.90;60.80;;;;;;5094244;28;20225;-73
2023/08/26 07:24:26;;;;;;;1.67;1.58;;;29.80;60.90;;;;;;5095322;28;20214;-72
2023/08/26 07:26:51;;;;;;;3.03;1.88;;;30.10;58.50;;;;;;5095340;28;20175;-73
2023/08/26 07:29:17;;;;;;;6.43;2.10;;;30.10;59.10;;;;;;5094650;28;20261;-73
2023/08/26 07:31:42;;;;;;;2.17;1.80;;;30.50;57.30;;;;;;5093676;28;20164;-74
2023/08/26 07:34:08;;;;;;;2.38;2.05;;;29.50;58.90;;;;;;5093623;28;20534;-73
2023/08/26 07:36:34;;;;;;;3.40;1.90;;;27.90;65.20;;;;;;5095313;28;20184;-73
2023/08/26 07:38:59;;;;;;;4.68;2.03;;;27.50;70.00;;;;;;5095032;28;20566;-73
2023/08/26 07:41:25;;;;;;;2.30;1.85;;;26.40;76.80;;;;;;5094544;28;20188;-72
2023/08/26 07:43:51;;;;;;;3.83;1.75;;;26.20;81.40;;;;;;5094947;28;20164;-73
2023/08/26 07:46:18;;;;;;;5.25;2.05;;;26.60;79.10;;;;;;5094398;28;20216;-73
2023/08/26 07:48:44;;;;;;;2.10;1.90;;;27.00;78.10;;;;;;5094823;28;20644;-75
2023/08/26 07:51:10;;;;;;;4.72;2.00;;;26.80;77.90;;;;;;5094766;28;20184;-74
2023/08/26 07:53:36;;;;;;;1.85;1.70;;;27.50;75.20;;;;;;5094575;28;20171;-74
2023/08/26 07:56:02;;;;;;;3.90;1.90;;;27.40;73.90;;;;;;5094819;28;20199;-74
2023/08/26 07:58:27;;;;;;;3.20;1.95;;;28.40;71.20;;;;;;5094207;28;20525;-74
2023/08/26 08:00:53;;;;;;;3.33;1.95;;;29.50;65.70;;;;;;5094126;28;20176;-74
2023/08/26 08:03:19;;;;;;;4.20;1.90;;;30.80;59.10;;;;;;5093232;28;20623;-75
2023/08/26 08:05:44;;;;;;;2.95;1.73;;;31.10;56.00;;;;;;5094455;28;20183;-75
2023/08/26 08:08:10;;;;;;;2.78;1.88;;;30.80;55.70;;;;;;5094848;28;20211;-75
2023/08/26 08:10:36;;;;;;;4.35;1.90;;;30.00;58.10;;;;;;5094518;28;20210;-75
2023/08/26 08:13:01;;;;;;;2.72;1.85;;;29.70;58.00;;;;;;5094210;28;20217;-75
2023/08/26 08:15:27;;;;;;;1.98;1.38;;;29.50;59.20;;;;;;5094338;28;20266;-74
2023/08/26 08:17:52;;;;;;;1.65;1.33;;;28.90;60.40;;;;;;5093642;28;20168;-75
2023/08/26 08:20:19;;;;;;;3.63;1.67;;;29.60;59.90;;;;;;5094516;28;20700;-75
2023/08/26 08:22:45;;;;;;;2.50;1.70;;;29.30;60.00;;;;;;5093915;28;20171;-75
2023/08/26 08:25:11;;;;;;;2.92;1.63;;;30.30;57.80;;;;;;5094234;28;20217;-75
2023/08/26 08:27:38;;;;;;;3.53;1.70;;;29.40;59.50;;;;;;5094196;28;20168;-74
2023/08/26 08:30:05;;;;;;;1.98;1.80;;;30.20;59.50;;;;;;5093631;28;20295;-74
2023/08/26 08:32:31;;;;;;;1.45;1.35;;;29.80;57.80;;;;;;5093871;28;20201;-75
2023/08/26 08:34:57;;;;;;;2.25;1.23;;;29.10;59.10;;;;;;5093905;28;20164;-74
2023/08/26 08:37:22;;;;;;;1.63;1.38;;;29.50;58.30;;;;;;5093964;28;20164;-74
2023/08/26 08:39:48;;;;;;;2.50;1.42;;;29.10;57.70;;;;;;5094160;28;20176;-77
2023/08/26 08:42:18;;;;;;;2.70;1.60;;;30.00;57.80;;;;;;5093214;28;20687;-76
2023/08/26 08:44:46;;;;;;;2.97;1.63;;;30.10;56.20;;;;;;5092121;28;20257;-77
2023/08/26 08:47:12;;;;;;;2.08;1.40;;;30.90;54.50;;;;;;5092610;28;20642;-76
2023/08/26 08:49:38;;;;;;;2.55;1.58;;;30.30;54.50;;;;;;5093736;28;20235;-76
2023/08/26 08:52:04;;;;;;;2.00;1.60;;;30.60;54.80;;;;;;5093332;28;20198;-75
2023/08/26 08:54:32;;;;;;;2.22;1.58;;;29.80;56.20;;;;;;5091712;28;20180;-75
2023/08/26 08:56:58;;;;;;;1.45;1.30;;;29.40;55.30;;;;;;5093332;28;20635;-75
2023/08/26 08:59:27;;;;;;;2.00;1.80;;;28.80;58.10;;;;;;5092923;28;20730;-76
2023/08/26 09:01:57;;;;;;;2.45;1.90;;;28.80;58.00;;;;;;5093517;28;20221;-75
2023/08/26 09:04:26;;;;;;;2.45;2.13;;;29.90;57.50;;;;;;5093443;28;20167;-77
2023/08/26 09:06:53;;;;;;;3.17;1.55;;;30.40;55.90;;;;;;5093649;28;20229;-77
2023/08/26 09:09:20;;;;;;;2.72;1.80;;;31.20;54.00;;;;;;5093315;28;20199;-76
2023/08/26 09:11:46;;;;;;;2.33;1.88;;;30.10;54.00;;;;;;5093311;28;20168;-76
2023/08/26 09:14:12;;;;;;;4.15;1.98;;;29.40;56.80;;;;;;5092906;28;20172;-75
2023/08/26 09:16:42;;;;;;;3.83;1.85;;;29.00;58.30;;;;;;5093342;28;20627;-75
2023/08/26 09:19:11;;;;;;;3.13;1.80;;;28.80;58.70;;;;;;5092474;28;20690;-76
2023/08/26 09:21:46;;;;;;;3.78;1.80;;;28.80;59.60;;;;;;5092952;28;20171;-75
2023/08/26 09:24:13;;;;;;;2.78;1.83;;;29.70;58.60;;;;;;5093054;28;20198;-74
2023/08/26 09:26:40;;;;;;;2.17;2.00;;;29.60;56.30;;;;;;5093396;28;20171;-74
2023/08/26 09:29:16;;;;;;;2.08;1.95;;;27.80;60.70;;;;;;5092639;28;20645;-74
2023/08/26 09:31:49;;;;;;;2.13;1.95;;;26.90;67.60;;;;;;5092938;28;20183;-72
2023/08/26 09:34:25;;;;;;;3.30;2.17;;;26.80;69.80;;;;;;5092879;28;20164;-75
2023/08/26 09:36:51;;;;;;;4.55;2.00;;;27.10;69.40;;;;;;5092996;28;20167;-73
2023/08/26 09:39:17;;;;;;;2.92;1.95;;;27.40;67.60;;;;;;5092876;28;20650;-72
2023/08/26 09:41:44;;;;;;;2.53;1.67;;;26.50;70.70;;;;;;5092598;28;20691;-75
2023/08/26 09:44:10;;;;;;;4.05;2.20;;;27.10;71.00;;;;;;5092708;28;20183;-75
2023/08/26 09:46:36;;;;;;;3.63;1.70;;;28.30;65.50;;;;;;5092154;28;20168;-75
2023/08/26 09:49:05;;;;;;;1.70;1.55;;;27.80;65.60;;;;;;5092524;28;20175;-74
2023/08/26 09:51:31;;;;;;;1.70;1.60;;;28.20;65.30;;;;;;5092760;28;20198;-74
2023/08/26 09:53:59;;;;;;;1.60;1.50;;;28.10;65.80;;;;;;5092952;28;20164;-75
2023/08/26 09:56:26;;;;;;;2.67;1.92;;;28.10;63.00;;;;;;5091974;28;20164;-74
2023/08/26 09:58:56;;;;;;;2.22;1.70;;;27.90;63.90;;;;;;5092508;28;20643;-74
2023/08/26 10:01:23;;;;;;;1.80;1.70;;;28.90;62.20;;;;;;5092662;28;20237;-74
2023/08/26 10:04:10;;;;;;;2.55;1.88;;;29.50;60.40;;;;;;5092420;28;20251;-75
2023/08/26 10:06:41;;;;;;;3.90;1.80;;;29.90;59.80;;;;;;5092378;28;20182;-75
2023/08/26 10:09:22;;;;;;;2.20;1.77;;;30.60;58.70;;;;;;5094031;28;20175;-75
2023/08/26 10:11:50;;;;;;;2.13;1.60;;;30.30;55.20;;;;;;5091990;28;20659;-73
2023/08/26 10:14:18;;;;;;;3.28;1.73;;;29.20;57.70;;;;;;5092596;28;20190;-74
2023/08/26 10:16:45;;;;;;;1.90;1.35;;;28.40;60.40;;;;;;5092639;28;20266;-74
2023/08/26 10:19:13;;;;;;;4.07;1.83;;;27.40;67.60;;;;;;5092180;28;20274;-73
2023/08/26 10:21:39;;;;;;;1.98;1.80;;;27.70;67.10;;;;;;5092027;28;20194;-74
2023/08/26 10:24:05;;;;;;;1.77;1.58;;;28.10;65.80;;;;;;5092182;28;20167;-73
2023/08/26 10:26:31;;;;;;;1.90;1.60;;;26.80;69.40;;;;;;5090164;28;20174;-73
2023/08/26 10:28:59;;;;;;;1.85;1.20;;;25.60;76.50;;;;;;5091166;28;20175;-73
2023/08/26 10:31:36;;;;;;;1.55;1.15;;;25.10;82.50;;;;;;5092479;28;20180;-70
2023/08/26 10:34:09;;;;;;;1.20;1.10;;;24.60;82.20;;;;;;5092181;28;20156;-72
2023/08/26 10:36:36;;;;;;;2.40;1.10;;;24.10;87.40;;;;;;5092025;28;20190;-74
2023/08/26 10:39:02;;;;;;;2.80;1.50;;;23.90;90.10;;;;;;5092157;28;20318;-73
2023/08/26 10:41:30;;;;;;;1.73;1.30;;;24.00;90.10;;;;;;5091553;28;20282;-72
2023/08/26 10:43:58;;;;;;;1.60;1.30;;;24.30;91.00;;;;;;5092610;28;20179;-72
2023/08/26 10:46:56;;;;;;;1.45;1.05;;;23.70;92.00;;;;;;5091974;28;20682;-72
2023/08/26 10:49:28;;;;;;;3.03;1.30;;;23.30;93.90;;;;;;5090967;28;20277;-74
2023/08/26 10:52:17;;;;;;;2.60;1.40;;;23.70;95.10;;;;;;5090673;28;20176;-74
2023/08/26 10:54:44;;;;;;;1.70;1.38;;;25.50;91.10;;;;;;5091814;28;20175;-73
2023/08/26 10:57:10;;;;;;;0.90;0.90;;;25.80;88.30;;;;;;5092679;28;20658;-74
2023/08/26 10:59:44;;;;;;;1.70;1.40;;;26.00;83.90;;;;;;5095616;28;20180;-74
2023/08/26 11:02:11;;;;;;;1.27;1.10;;;26.10;82.80;;;;;;5095424;28;20171;-73
2023/08/26 11:04:42;;;;;;;1.27;1.15;;;25.90;82.90;;;;;;5095179;28;20635;-74
2023/08/26 11:07:17;;;;;;;1.98;1.20;;;25.70;86.20;;;;;;5095426;28;20250;-73
2023/08/26 11:09:43;;;;;;;3.65;1.17;;;25.50;86.10;;;;;;5094870;28;20195;-74
2023/08/26 11:12:26;;;;;;;1.17;1.15;;;25.90;85.50;;;;;;5095480;28;20168;-73
2023/08/26 11:14:52;;;;;;;2.67;1.58;;;25.50;85.10;;;;;;5095188;28;20271;-74
2023/08/26 11:17:18;;;;;;;1.23;1.10;;;26.20;81.50;;;;;;5095054;28;20176;-73
2023/08/26 11:19:44;;;;;;;2.55;1.33;;;26.60;78.30;;;;;;5095316;28;20234;-73
2023/08/26 11:22:10;;;;;;;2.03;1.75;;;26.10;80.80;;;;;;5094673;28;20172;-74
2023/08/26 11:24:36;;;;;;;1.50;1.10;;;26.00;82.00;;;;;;5094891;28;20228;-74
2023/08/26 11:27:03;;;;;;;4.90;2.53;;;26.00;81.10;;;;;;5094627;28;20167;-73
2023/08/26 11:29:29;;;;;;;2.97;1.23;;;25.50;80.40;;;;;;5094893;28;20298;-74
2023/08/26 11:31:55;;;;;;;1.17;0.80;;;25.70;84.40;;;;;;5095468;28;20247;-73
2023/08/26 11:34:24;;;;;;;1.23;1.10;;;25.30;83.80;;;;;;5094287;28;20168;-72
2023/08/26 11:36:53;;;;;;;1.55;1.08;;;25.40;84.60;;;;;;5094972;28;20639;-73
2023/08/26 11:39:19;;;;;;;1.85;1.05;;;26.00;82.00;;;;;;5094437;28;20172;-73
2023/08/26 11:41:45;;;;;;;1.20;0.90;;;26.70;77.80;;;;;;5092833;28;20207;-73
2023/08/26 11:44:15;;;;;;;1.88;0.85;;;26.50;76.00;;;;;;5095033;28;20647;-73
2023/08/26 11:46:41;;;;;;;1.30;1.00;;;26.40;77.80;;;;;;5094532;28;20615;-73
2023/08/26 11:49:10;;;;;;;1.45;1.10;;;26.10;79.10;;;;;;5094665;28;20179;-72
2023/08/26 11:51:38;;;;;;;1.40;0.93;;;25.80;81.50;;;;;;5094920;28;20182;-72
2023/08/26 11:54:04;;;;;;;3.15;1.10;;;25.40;80.40;;;;;;5093505;28;20227;-73
2023/08/26 11:56:29;;;;;;;1.52;1.00;;;24.60;89.00;;;;;;5094264;28;20528;-71
2023/08/26 11:58:55;;;;;;;2.35;0.80;;;24.90;88.00;;;;;;5093150;28;20557;-72
2023/08/26 12:01:23;;;;;;;2.33;1.10;;;24.80;87.10;;;;;;5094564;28;20168;-73
2023/08/26 12:03:49;;;;;;;2.25;1.02;;;24.80;87.20;;;;;;5093562;28;20221;-72
2023/08/26 12:06:16;;;;;;;2.22;1.23;;;24.40;84.80;;;;;;5094439;28;20160;-73
2023/08/26 12:08:42;;;;;;;1.40;1.00;;;24.60;85.50;;;;;;5093837;28;20640;-72
2023/08/26 12:11:08;;;;;;;2.50;0.80;;;25.10;84.20;;;;;;5094161;28;20207;-73
2023/08/26 12:13:40;;;;;;;0.95;0.90;;;25.80;78.80;;;;;;5093780;28;20175;-73
2023/08/26 12:16:06;;;;;;;1.08;0.80;;;25.90;77.80;;;;;;5093186;28;20172;-72
2023/08/26 12:18:31;;;;;;;1.27;1.17;;;26.00;74.80;;;;;;5093204;28;20224;-72
2023/08/26 12:20:57;;;;;;;2.08;0.95;;;25.30;78.80;;;;;;5092689;28;20168;-72
2023/08/26 12:23:23;;;;;;;2.20;1.00;;;24.80;83.20;;;;;;5093671;28;20623;-72
2023/08/26 12:25:48;;;;;;;1.77;0.80;;;25.10;82.70;;;;;;5094019;28;20168;-73
2023/08/26 12:28:19;;;;;;;1.02;0.90;;;24.50;82.20;;;;;;5093732;28;20259;-72
2023/08/26 12:30:46;;;;;;;1.02;1.00;;;24.10;83.80;;;;;;5093826;28;20678;-73
2023/08/26 12:33:13;;;;;;;2.05;1.30;;;24.00;87.00;;;;;;5093633;28;20164;-74
2023/08/26 12:35:39;;;;;;;1.60;1.30;;;24.20;89.80;;;;;;5092283;28;20600;-73
2023/08/26 12:38:06;;;;;;;1.42;1.33;;;24.70;87.10;;;;;;5093325;28;20466;-73
2023/08/26 12:40:37;;;;;;;2.63;1.00;;;24.70;85.40;;;;;;5093809;28;20168;-73
2023/08/26 12:43:04;;;;;;;2.15;1.10;;;24.40;87.80;;;;;;5092222;28;20497;-72
2023/08/26 12:45:34;;;;;;;1.05;0.80;;;24.00;90.90;;;;;;5093345;28;20168;-74